sensor_id;sensor_type;location;lat;lon;timestamp;P1;durP1;ratioP1;P2;durP2;ratioP2
74789;SDS011;63318;52.406;13.416;2022-12-05T00:01:17;67.40;;;23.00;;
74789;SDS011;63318;52.406;13.416;2022-12-05T00:03:48;63.90;;;23.50;;
74789;SDS011;63318;52.406;13.416;2022-12-05T00:06:18;70.90;;;24.20;;
74789;SDS011;63318;52.406;13.416;2022-12-05T00:08:47;69.70;;;21.40;;
74789;SDS011;63318;52.406;13.416;2022-12-05T00:11:17;70.20;;;24.70;;
74789;SDS011;63318;52.406;13.416;2022-12-05T00:13:47;71.30;;;24.50;;
74789;SDS011;63318;52.406;13.416;2022-12-05T00:16:16;72.90;;;25.60;;
74789;SDS011;63318;52.406;13.416;2022-12-05T00:18:46;67.50;;;23.70;;
74789;SDS011;63318;52.406;13.416;2022-12-05T00:21:16;69.10;;;23.50;;
74789;SDS011;63318;52.406;13.416;2022-12-05T00:23:46;71.70;;;24.70;;
74789;SDS011;63318;52.406;13.416;2022-12-05T00:26:15;70.50;;;24.40;;
74789;SDS011;63318;52.406;13.416;2022-12-05T00:28:43;69.60;;;24.70;;
74789;SDS011;63318;52.406;13.416;2022-12-05T00:31:13;64.80;;;22.10;;
74789;SDS011;63318;52.406;13.416;2022-12-05T00:33:43;70.90;;;24.70;;
74789;SDS011;63318;52.406;13.416;2022-12-05T00:36:12;68.40;;;22.90;;
74789;SDS011;63318;52.406;13.416;2022-12-05T00:38:42;67.40;;;23.60;;
74789;SDS011;63318;52.406;13.416;2022-12-05T00:41:11;68.60;;;26.00;;
74789;SDS011;63318;52.406;13.416;2022-12-05T00:43:41;66.90;;;22.90;;
74789;SDS011;63318;52.406;13.416;2022-12-05T00:46:10;77.00;;;24.20;;
74789;SDS011;63318;52.406;13.416;2022-12-05T00:48:40;77.70;;;24.60;;
74789;SDS011;63318;52.406;13.416;2022-12-05T00:51:09;86.00;;;27.80;;
74789;SDS011;63318;52.406;13.416;2022-12-05T00:53:39;62.20;;;22.10;;
74789;SDS011;63318;52.406;13.416;2022-12-05T00:56:09;69.40;;;22.90;;
74789;SDS011;63318;52.406;13.416;2022-12-05T00:58:38;72.80;;;24.80;;
74789;SDS011;63318;52.406;13.416;2022-12-05T01:01:08;79.50;;;24.00;;
74789;SDS011;63318;52.406;13.416;2022-12-05T01:03:37;68.90;;;23.10;;
74789;SDS011;63318;52.406;13.416;2022-12-05T01:06:08;68.00;;;23.20;;
74789;SDS011;63318;52.406;13.416;2022-12-05T01:08:37;71.50;;;22.40;;
74789;SDS011;63318;52.406;13.416;2022-12-05T01:11:06;71.30;;;24.50;;
74789;SDS011;63318;52.406;13.416;2022-12-05T01:13:36;62.90;;;21.40;;
74789;SDS011;63318;52.406;13.416;2022-12-05T01:16:05;72.20;;;23.40;;
74789;SDS011;63318;52.406;13.416;2022-12-05T01:18:38;69.90;;;25.00;;
74789;SDS011;63318;52.406;13.416;2022-12-05T01:21:07;69.40;;;23.90;;
74789;SDS011;63318;52.406;13.416;2022-12-05T01:23:35;70.70;;;24.10;;
74789;SDS011;63318;52.406;13.416;2022-12-05T01:26:05;68.20;;;22.50;;
74789;SDS011;63318;52.406;13.416;2022-12-05T01:28:36;71.10;;;22.90;;
74789;SDS011;63318;52.406;13.416;2022-12-05T01:31:05;69.80;;;23.50;;
74789;SDS011;63318;52.406;13.416;2022-12-05T01:33:47;70.10;;;23.50;;
74789;SDS011;63318;52.406;13.416;2022-12-05T01:36:17;69.40;;;22.90;;
74789;SDS011;63318;52.406;13.416;2022-12-05T01:38:46;71.80;;;25.60;;
74789;SDS011;63318;52.406;13.416;2022-12-05T01:41:15;68.50;;;23.40;;
74789;SDS011;63318;52.406;13.416;2022-12-05T01:43:59;70.50;;;24.00;;
74789;SDS011;63318;52.406;13.416;2022-12-05T01:49:00;62.10;;;20.20;;
74789;SDS011;63318;52.406;13.416;2022-12-05T01:51:33;66.50;;;21.30;;
74789;SDS011;63318;52.406;13.416;2022-12-05T01:54:04;66.70;;;23.70;;
74789;SDS011;63318;52.406;13.416;2022-12-05T01:56:34;62.70;;;23.30;;
74789;SDS011;63318;52.406;13.416;2022-12-05T01:59:06;61.00;;;22.00;;
74789;SDS011;63318;52.406;13.416;2022-12-05T02:01:36;65.70;;;23.10;;
74789;SDS011;63318;52.406;13.416;2022-12-05T02:04:05;63.70;;;22.40;;
74789;SDS011;63318;52.406;13.416;2022-12-05T02:06:34;57.70;;;20.70;;
74789;SDS011;63318;52.406;13.416;2022-12-05T02:09:02;55.60;;;19.70;;
74789;SDS011;63318;52.406;13.416;2022-12-05T02:11:31;47.20;;;16.50;;
74789;SDS011;63318;52.406;13.416;2022-12-05T02:16:51;59.90;;;20.10;;
74789;SDS011;63318;52.406;13.416;2022-12-05T02:19:49;73.30;;;23.90;;
74789;SDS011;63318;52.406;13.416;2022-12-05T02:22:42;70.70;;;23.10;;
74789;SDS011;63318;52.406;13.416;2022-12-05T02:28:28;67.80;;;23.40;;
74789;SDS011;63318;52.406;13.416;2022-12-05T02:31:10;62.40;;;23.30;;
74789;SDS011;63318;52.406;13.416;2022-12-05T02:33:44;59.70;;;21.00;;
74789;SDS011;63318;52.406;13.416;2022-12-05T02:36:16;62.40;;;21.50;;
74789;SDS011;63318;52.406;13.416;2022-12-05T02:38:52;65.10;;;21.20;;
74789;SDS011;63318;52.406;13.416;2022-12-05T02:41:30;66.40;;;23.10;;
74789;SDS011;63318;52.406;13.416;2022-12-05T02:44:01;70.80;;;22.50;;
74789;SDS011;63318;52.406;13.416;2022-12-05T02:46:34;64.60;;;22.70;;
74789;SDS011;63318;52.406;13.416;2022-12-05T02:49:04;63.70;;;22.50;;
74789;SDS011;63318;52.406;13.416;2022-12-05T02:51:37;57.60;;;21.50;;
74789;SDS011;63318;52.406;13.416;2022-12-05T02:54:10;59.40;;;20.90;;
74789;SDS011;63318;52.406;13.416;2022-12-05T02:56:42;56.60;;;19.50;;
74789;SDS011;63318;52.406;13.416;2022-12-05T02:59:13;53.00;;;18.50;;
74789;SDS011;63318;52.406;13.416;2022-12-05T03:01:42;52.30;;;18.50;;
74789;SDS011;63318;52.406;13.416;2022-12-05T03:04:12;49.40;;;19.70;;
74789;SDS011;63318;52.406;13.416;2022-12-05T03:06:43;50.60;;;19.90;;
74789;SDS011;63318;52.406;13.416;2022-12-05T03:09:17;54.90;;;20.90;;
74789;SDS011;63318;52.406;13.416;2022-12-05T03:11:50;50.80;;;19.60;;
74789;SDS011;63318;52.406;13.416;2022-12-05T03:14:23;42.00;;;17.00;;
74789;SDS011;63318;52.406;13.416;2022-12-05T03:16:56;47.00;;;19.40;;
74789;SDS011;63318;52.406;13.416;2022-12-05T03:19:29;45.70;;;18.30;;
74789;SDS011;63318;52.406;13.416;2022-12-05T03:22:03;50.90;;;18.90;;
74789;SDS011;63318;52.406;13.416;2022-12-05T03:24:36;43.10;;;17.80;;
74789;SDS011;63318;52.406;13.416;2022-12-05T03:27:06;49.00;;;17.50;;
74789;SDS011;63318;52.406;13.416;2022-12-05T03:29:42;53.00;;;17.80;;
74789;SDS011;63318;52.406;13.416;2022-12-05T03:32:17;57.70;;;19.50;;
74789;SDS011;63318;52.406;13.416;2022-12-05T03:34:53;52.00;;;19.40;;
74789;SDS011;63318;52.406;13.416;2022-12-05T03:37:29;51.50;;;18.90;;
74789;SDS011;63318;52.406;13.416;2022-12-05T03:42:39;50.20;;;16.80;;
74789;SDS011;63318;52.406;13.416;2022-12-05T03:45:16;51.30;;;18.00;;
74789;SDS011;63318;52.406;13.416;2022-12-05T03:47:52;43.70;;;17.00;;
74789;SDS011;63318;52.406;13.416;2022-12-05T03:50:28;45.60;;;17.80;;
74789;SDS011;63318;52.406;13.416;2022-12-05T03:52:58;47.80;;;18.40;;
74789;SDS011;63318;52.406;13.416;2022-12-05T03:55:31;49.10;;;17.10;;
74789;SDS011;63318;52.406;13.416;2022-12-05T03:58:04;51.50;;;18.30;;
74789;SDS011;63318;52.406;13.416;2022-12-05T04:00:35;51.40;;;17.80;;
74789;SDS011;63318;52.406;13.416;2022-12-05T04:03:07;47.30;;;18.10;;
74789;SDS011;63318;52.406;13.416;2022-12-05T04:05:41;38.00;;;16.60;;
74789;SDS011;63318;52.406;13.416;2022-12-05T04:08:13;44.10;;;16.80;;
74789;SDS011;63318;52.406;13.416;2022-12-05T04:10:47;44.00;;;18.20;;
74789;SDS011;63318;52.406;13.416;2022-12-05T04:13:20;37.00;;;15.50;;
74789;SDS011;63318;52.406;13.416;2022-12-05T04:16:00;44.40;;;17.10;;
74789;SDS011;63318;52.406;13.416;2022-12-05T04:18:31;43.60;;;17.40;;
74789;SDS011;63318;52.406;13.416;2022-12-05T04:21:01;38.20;;;17.30;;
74789;SDS011;63318;52.406;13.416;2022-12-05T04:23:32;41.80;;;16.80;;
74789;SDS011;63318;52.406;13.416;2022-12-05T04:26:01;35.30;;;14.80;;
74789;SDS011;63318;52.406;13.416;2022-12-05T04:28:37;43.20;;;17.10;;
74789;SDS011;63318;52.406;13.416;2022-12-05T04:31:14;38.80;;;17.50;;
74789;SDS011;63318;52.406;13.416;2022-12-05T04:33:47;37.40;;;14.60;;
74789;SDS011;63318;52.406;13.416;2022-12-05T04:36:20;41.80;;;16.00;;
74789;SDS011;63318;52.406;13.416;2022-12-05T04:38:55;39.40;;;16.20;;
74789;SDS011;63318;52.406;13.416;2022-12-05T04:41:28;41.20;;;16.50;;
74789;SDS011;63318;52.406;13.416;2022-12-05T04:44:00;35.60;;;15.80;;
74789;SDS011;63318;52.406;13.416;2022-12-05T04:46:33;44.90;;;17.00;;
74789;SDS011;63318;52.406;13.416;2022-12-05T04:49:04;49.10;;;18.40;;
74789;SDS011;63318;52.406;13.416;2022-12-05T04:51:35;39.80;;;15.90;;
74789;SDS011;63318;52.406;13.416;2022-12-05T04:54:09;38.60;;;17.00;;
74789;SDS011;63318;52.406;13.416;2022-12-05T04:56:43;36.60;;;15.80;;
74789;SDS011;63318;52.406;13.416;2022-12-05T04:59:14;35.10;;;15.70;;
74789;SDS011;63318;52.406;13.416;2022-12-05T05:01:42;39.50;;;16.10;;
74789;SDS011;63318;52.406;13.416;2022-12-05T05:04:16;36.40;;;14.60;;
74789;SDS011;63318;52.406;13.416;2022-12-05T05:06:51;32.70;;;14.90;;
74789;SDS011;63318;52.406;13.416;2022-12-05T05:09:20;36.40;;;15.50;;
74789;SDS011;63318;52.406;13.416;2022-12-05T05:11:48;32.10;;;14.60;;
74789;SDS011;63318;52.406;13.416;2022-12-05T05:14:16;37.30;;;14.30;;
74789;SDS011;63318;52.406;13.416;2022-12-05T05:16:44;36.00;;;14.10;;
74789;SDS011;63318;52.406;13.416;2022-12-05T05:19:13;32.80;;;14.40;;
74789;SDS011;63318;52.406;13.416;2022-12-05T05:21:41;34.80;;;15.00;;
74789;SDS011;63318;52.406;13.416;2022-12-05T05:24:10;31.70;;;14.00;;
74789;SDS011;63318;52.406;13.416;2022-12-05T05:26:40;29.50;;;13.40;;
74789;SDS011;63318;52.406;13.416;2022-12-05T05:29:09;30.20;;;14.70;;
74789;SDS011;63318;52.406;13.416;2022-12-05T05:31:39;34.50;;;13.70;;
74789;SDS011;63318;52.406;13.416;2022-12-05T05:34:07;30.80;;;13.70;;
74789;SDS011;63318;52.406;13.416;2022-12-05T05:36:37;29.80;;;12.70;;
74789;SDS011;63318;52.406;13.416;2022-12-05T05:39:05;29.30;;;12.60;;
74789;SDS011;63318;52.406;13.416;2022-12-05T05:41:39;31.50;;;13.30;;
74789;SDS011;63318;52.406;13.416;2022-12-05T05:44:08;30.40;;;13.50;;
74789;SDS011;63318;52.406;13.416;2022-12-05T05:46:37;28.40;;;13.90;;
74789;SDS011;63318;52.406;13.416;2022-12-05T05:49:05;29.50;;;13.20;;
74789;SDS011;63318;52.406;13.416;2022-12-05T05:51:33;30.60;;;13.60;;
74789;SDS011;63318;52.406;13.416;2022-12-05T05:54:01;34.10;;;13.10;;
74789;SDS011;63318;52.406;13.416;2022-12-05T05:56:30;27.90;;;12.30;;
74789;SDS011;63318;52.406;13.416;2022-12-05T05:58:59;29.30;;;13.60;;
74789;SDS011;63318;52.406;13.416;2022-12-05T06:01:28;30.60;;;13.50;;
74789;SDS011;63318;52.406;13.416;2022-12-05T06:03:57;29.30;;;12.60;;
74789;SDS011;63318;52.406;13.416;2022-12-05T06:06:25;30.40;;;12.00;;
74789;SDS011;63318;52.406;13.416;2022-12-05T06:08:54;27.10;;;12.50;;
74789;SDS011;63318;52.406;13.416;2022-12-05T06:11:23;22.90;;;10.90;;
74789;SDS011;63318;52.406;13.416;2022-12-05T06:13:52;25.20;;;10.90;;
74789;SDS011;63318;52.406;13.416;2022-12-05T06:16:21;25.00;;;11.80;;
74789;SDS011;63318;52.406;13.416;2022-12-05T06:18:50;23.80;;;10.70;;
74789;SDS011;63318;52.406;13.416;2022-12-05T06:21:18;24.20;;;11.10;;
74789;SDS011;63318;52.406;13.416;2022-12-05T06:23:48;24.60;;;10.50;;
74789;SDS011;63318;52.406;13.416;2022-12-05T06:26:17;25.30;;;11.40;;
74789;SDS011;63318;52.406;13.416;2022-12-05T06:28:47;21.40;;;10.60;;
74789;SDS011;63318;52.406;13.416;2022-12-05T06:31:16;22.10;;;11.20;;
74789;SDS011;63318;52.406;13.416;2022-12-05T06:33:46;23.90;;;10.80;;
74789;SDS011;63318;52.406;13.416;2022-12-05T06:36:15;21.90;;;10.00;;
74789;SDS011;63318;52.406;13.416;2022-12-05T06:38:46;26.20;;;12.00;;
74789;SDS011;63318;52.406;13.416;2022-12-05T06:41:15;24.90;;;10.70;;
74789;SDS011;63318;52.406;13.416;2022-12-05T06:43:46;25.80;;;11.50;;
74789;SDS011;63318;52.406;13.416;2022-12-05T06:46:14;21.20;;;10.00;;
74789;SDS011;63318;52.406;13.416;2022-12-05T06:48:43;24.20;;;11.20;;
74789;SDS011;63318;52.406;13.416;2022-12-05T06:51:12;20.50;;;10.00;;
74789;SDS011;63318;52.406;13.416;2022-12-05T06:53:42;21.50;;;9.70;;
74789;SDS011;63318;52.406;13.416;2022-12-05T06:56:11;23.90;;;11.20;;
74789;SDS011;63318;52.406;13.416;2022-12-05T06:58:42;23.30;;;11.20;;
74789;SDS011;63318;52.406;13.416;2022-12-05T07:01:12;24.70;;;11.20;;
74789;SDS011;63318;52.406;13.416;2022-12-05T07:03:42;28.30;;;12.00;;
74789;SDS011;63318;52.406;13.416;2022-12-05T07:06:10;21.80;;;10.40;;
74789;SDS011;63318;52.406;13.416;2022-12-05T07:08:39;23.50;;;11.50;;
74789;SDS011;63318;52.406;13.416;2022-12-05T07:11:07;22.20;;;10.50;;
74789;SDS011;63318;52.406;13.416;2022-12-05T07:13:36;24.70;;;10.70;;
74789;SDS011;63318;52.406;13.416;2022-12-05T07:16:05;24.20;;;10.40;;
74789;SDS011;63318;52.406;13.416;2022-12-05T07:18:35;26.70;;;10.80;;
74789;SDS011;63318;52.406;13.416;2022-12-05T07:21:04;24.40;;;11.40;;
74789;SDS011;63318;52.406;13.416;2022-12-05T07:23:34;20.80;;;9.80;;
74789;SDS011;63318;52.406;13.416;2022-12-05T07:26:04;26.10;;;10.00;;
74789;SDS011;63318;52.406;13.416;2022-12-05T07:28:34;20.90;;;10.10;;
74789;SDS011;63318;52.406;13.416;2022-12-05T07:31:04;20.60;;;9.90;;
74789;SDS011;63318;52.406;13.416;2022-12-05T07:33:34;20.10;;;8.90;;
74789;SDS011;63318;52.406;13.416;2022-12-05T07:36:04;21.30;;;9.70;;
74789;SDS011;63318;52.406;13.416;2022-12-05T07:38:34;21.30;;;9.30;;
74789;SDS011;63318;52.406;13.416;2022-12-05T07:41:04;18.60;;;9.10;;
74789;SDS011;63318;52.406;13.416;2022-12-05T07:43:35;20.00;;;9.30;;
74789;SDS011;63318;52.406;13.416;2022-12-05T07:46:03;19.50;;;9.00;;
74789;SDS011;63318;52.406;13.416;2022-12-05T07:48:33;20.70;;;9.30;;
74789;SDS011;63318;52.406;13.416;2022-12-05T07:51:01;19.00;;;9.50;;
74789;SDS011;63318;52.406;13.416;2022-12-05T07:53:31;21.90;;;10.10;;
74789;SDS011;63318;52.406;13.416;2022-12-05T07:56:00;24.80;;;11.30;;
74789;SDS011;63318;52.406;13.416;2022-12-05T07:58:30;21.40;;;10.90;;
74789;SDS011;63318;52.406;13.416;2022-12-05T08:01:05;20.00;;;9.30;;
74789;SDS011;63318;52.406;13.416;2022-12-05T08:03:36;19.30;;;9.50;;
74789;SDS011;63318;52.406;13.416;2022-12-05T08:06:05;19.80;;;9.50;;
74789;SDS011;63318;52.406;13.416;2022-12-05T08:08:35;25.50;;;10.50;;
74789;SDS011;63318;52.406;13.416;2022-12-05T08:11:03;29.70;;;11.30;;
74789;SDS011;63318;52.406;13.416;2022-12-05T08:13:34;23.80;;;11.50;;
74789;SDS011;63318;52.406;13.416;2022-12-05T08:16:04;21.30;;;9.70;;
74789;SDS011;63318;52.406;13.416;2022-12-05T08:18:35;20.20;;;10.40;;
74789;SDS011;63318;52.406;13.416;2022-12-05T08:21:04;22.70;;;10.40;;
74789;SDS011;63318;52.406;13.416;2022-12-05T08:23:35;19.70;;;9.30;;
74789;SDS011;63318;52.406;13.416;2022-12-05T08:26:05;22.20;;;11.30;;
74789;SDS011;63318;52.406;13.416;2022-12-05T08:28:35;20.70;;;9.60;;
74789;SDS011;63318;52.406;13.416;2022-12-05T08:31:05;19.10;;;9.40;;
74789;SDS011;63318;52.406;13.416;2022-12-05T08:33:34;18.40;;;9.90;;
74789;SDS011;63318;52.406;13.416;2022-12-05T08:36:03;19.10;;;9.50;;
74789;SDS011;63318;52.406;13.416;2022-12-05T08:38:33;18.80;;;9.90;;
74789;SDS011;63318;52.406;13.416;2022-12-05T08:41:02;19.60;;;9.40;;
74789;SDS011;63318;52.406;13.416;2022-12-05T08:43:32;17.60;;;8.90;;
74789;SDS011;63318;52.406;13.416;2022-12-05T08:46:00;21.00;;;10.40;;
74789;SDS011;63318;52.406;13.416;2022-12-05T08:48:31;22.70;;;9.40;;
74789;SDS011;63318;52.406;13.416;2022-12-05T08:51:02;20.10;;;10.10;;
74789;SDS011;63318;52.406;13.416;2022-12-05T08:53:33;21.60;;;9.90;;
74789;SDS011;63318;52.406;13.416;2022-12-05T08:56:02;17.90;;;10.20;;
74789;SDS011;63318;52.406;13.416;2022-12-05T08:58:33;21.80;;;10.50;;
74789;SDS011;63318;52.406;13.416;2022-12-05T09:01:05;19.00;;;8.20;;
74789;SDS011;63318;52.406;13.416;2022-12-05T09:03:34;21.60;;;9.10;;
74789;SDS011;63318;52.406;13.416;2022-12-05T09:06:06;18.60;;;9.00;;
74789;SDS011;63318;52.406;13.416;2022-12-05T09:08:38;19.70;;;9.10;;
74789;SDS011;63318;52.406;13.416;2022-12-05T09:11:07;18.50;;;8.60;;
74789;SDS011;63318;52.406;13.416;2022-12-05T09:13:38;22.70;;;9.60;;
74789;SDS011;63318;52.406;13.416;2022-12-05T09:16:07;18.40;;;10.00;;
74789;SDS011;63318;52.406;13.416;2022-12-05T09:18:36;21.10;;;9.60;;
74789;SDS011;63318;52.406;13.416;2022-12-05T09:21:05;16.50;;;9.10;;
74789;SDS011;63318;52.406;13.416;2022-12-05T09:23:35;20.20;;;9.60;;
74789;SDS011;63318;52.406;13.416;2022-12-05T09:26:04;20.60;;;9.40;;
74789;SDS011;63318;52.406;13.416;2022-12-05T09:28:35;20.00;;;8.80;;
74789;SDS011;63318;52.406;13.416;2022-12-05T09:31:04;18.80;;;8.90;;
74789;SDS011;63318;52.406;13.416;2022-12-05T09:33:35;17.90;;;8.90;;
74789;SDS011;63318;52.406;13.416;2022-12-05T09:36:05;20.10;;;9.40;;
74789;SDS011;63318;52.406;13.416;2022-12-05T09:38:36;19.60;;;9.30;;
74789;SDS011;63318;52.406;13.416;2022-12-05T09:41:08;19.30;;;9.60;;
74789;SDS011;63318;52.406;13.416;2022-12-05T09:43:45;18.30;;;9.50;;
74789;SDS011;63318;52.406;13.416;2022-12-05T09:46:25;20.60;;;10.30;;
74789;SDS011;63318;52.406;13.416;2022-12-05T09:49:04;19.90;;;9.10;;
74789;SDS011;63318;52.406;13.416;2022-12-05T09:51:35;18.50;;;9.40;;
74789;SDS011;63318;52.406;13.416;2022-12-05T09:54:08;20.10;;;10.80;;
74789;SDS011;63318;52.406;13.416;2022-12-05T09:56:37;20.00;;;9.20;;
74789;SDS011;63318;52.406;13.416;2022-12-05T09:59:10;20.50;;;9.80;;
74789;SDS011;63318;52.406;13.416;2022-12-05T10:01:40;21.70;;;11.40;;
74789;SDS011;63318;52.406;13.416;2022-12-05T10:07:19;23.60;;;11.20;;
74789;SDS011;63318;52.406;13.416;2022-12-05T10:09:56;22.80;;;10.60;;
74789;SDS011;63318;52.406;13.416;2022-12-05T10:12:36;21.90;;;10.60;;
74789;SDS011;63318;52.406;13.416;2022-12-05T10:15:13;26.70;;;11.00;;
74789;SDS011;63318;52.406;13.416;2022-12-05T10:17:46;22.30;;;11.00;;
74789;SDS011;63318;52.406;13.416;2022-12-05T10:20:23;22.40;;;10.80;;
74789;SDS011;63318;52.406;13.416;2022-12-05T10:22:56;26.00;;;10.50;;
74789;SDS011;63318;52.406;13.416;2022-12-05T10:25:29;24.20;;;11.80;;
74789;SDS011;63318;52.406;13.416;2022-12-05T10:28:00;25.30;;;11.30;;
74789;SDS011;63318;52.406;13.416;2022-12-05T10:30:36;27.20;;;11.90;;
74789;SDS011;63318;52.406;13.416;2022-12-05T10:33:12;24.20;;;11.80;;
74789;SDS011;63318;52.406;13.416;2022-12-05T10:35:44;24.60;;;11.90;;
74789;SDS011;63318;52.406;13.416;2022-12-05T10:38:13;23.60;;;11.00;;
74789;SDS011;63318;52.406;13.416;2022-12-05T10:40:49;22.30;;;11.20;;
74789;SDS011;63318;52.406;13.416;2022-12-05T10:43:22;23.20;;;11.10;;
74789;SDS011;63318;52.406;13.416;2022-12-05T10:45:52;22.10;;;11.20;;
74789;SDS011;63318;52.406;13.416;2022-12-05T10:48:21;25.10;;;11.40;;
74789;SDS011;63318;52.406;13.416;2022-12-05T10:50:51;21.90;;;10.90;;
74789;SDS011;63318;52.406;13.416;2022-12-05T10:53:22;27.00;;;12.30;;
74789;SDS011;63318;52.406;13.416;2022-12-05T10:55:52;31.10;;;12.70;;
74789;SDS011;63318;52.406;13.416;2022-12-05T10:58:23;31.60;;;12.80;;
74789;SDS011;63318;52.406;13.416;2022-12-05T11:00:54;26.20;;;11.60;;
74789;SDS011;63318;52.406;13.416;2022-12-05T11:03:28;26.90;;;12.90;;
74789;SDS011;63318;52.406;13.416;2022-12-05T11:05:59;25.40;;;11.30;;
74789;SDS011;63318;52.406;13.416;2022-12-05T11:08:40;26.60;;;12.00;;
74789;SDS011;63318;52.406;13.416;2022-12-05T11:11:18;27.70;;;11.80;;
74789;SDS011;63318;52.406;13.416;2022-12-05T11:13:54;26.80;;;11.90;;
74789;SDS011;63318;52.406;13.416;2022-12-05T11:16:24;22.80;;;11.30;;
74789;SDS011;63318;52.406;13.416;2022-12-05T11:18:55;31.20;;;12.60;;
74789;SDS011;63318;52.406;13.416;2022-12-05T11:21:43;32.00;;;12.80;;
74789;SDS011;63318;52.406;13.416;2022-12-05T11:24:20;28.90;;;12.60;;
74789;SDS011;63318;52.406;13.416;2022-12-05T11:26:52;24.80;;;12.90;;
74789;SDS011;63318;52.406;13.416;2022-12-05T11:29:31;23.80;;;11.90;;
74789;SDS011;63318;52.406;13.416;2022-12-05T11:32:01;25.70;;;12.20;;
74789;SDS011;63318;52.406;13.416;2022-12-05T11:34:33;26.20;;;11.60;;
74789;SDS011;63318;52.406;13.416;2022-12-05T11:37:09;25.30;;;12.20;;
74789;SDS011;63318;52.406;13.416;2022-12-05T11:39:46;24.50;;;11.40;;
74789;SDS011;63318;52.406;13.416;2022-12-05T11:42:20;25.30;;;11.30;;
74789;SDS011;63318;52.406;13.416;2022-12-05T11:47:57;25.40;;;10.60;;
74789;SDS011;63318;52.406;13.416;2022-12-05T11:50:44;27.20;;;11.60;;
74789;SDS011;63318;52.406;13.416;2022-12-05T11:53:26;25.30;;;11.50;;
74789;SDS011;63318;52.406;13.416;2022-12-05T11:56:07;28.90;;;13.30;;
74789;SDS011;63318;52.406;13.416;2022-12-05T11:58:49;25.60;;;12.40;;
74789;SDS011;63318;52.406;13.416;2022-12-05T12:01:32;25.30;;;11.40;;
74789;SDS011;63318;52.406;13.416;2022-12-05T12:04:20;24.50;;;12.40;;
74789;SDS011;63318;52.406;13.416;2022-12-05T12:07:11;29.80;;;13.10;;
74789;SDS011;63318;52.406;13.416;2022-12-05T12:09:57;27.90;;;12.80;;
74789;SDS011;63318;52.406;13.416;2022-12-05T12:12:35;26.60;;;12.60;;
74789;SDS011;63318;52.406;13.416;2022-12-05T12:15:22;29.70;;;12.80;;
74789;SDS011;63318;52.406;13.416;2022-12-05T12:18:04;27.40;;;12.40;;
74789;SDS011;63318;52.406;13.416;2022-12-05T12:20:41;36.40;;;13.80;;
74789;SDS011;63318;52.406;13.416;2022-12-05T12:23:20;31.70;;;14.60;;
74789;SDS011;63318;52.406;13.416;2022-12-05T12:26:02;32.20;;;14.30;;
74789;SDS011;63318;52.406;13.416;2022-12-05T12:28:38;29.60;;;13.50;;
74789;SDS011;63318;52.406;13.416;2022-12-05T12:31:27;35.60;;;14.30;;
74789;SDS011;63318;52.406;13.416;2022-12-05T12:34:08;31.50;;;13.50;;
74789;SDS011;63318;52.406;13.416;2022-12-05T12:36:54;31.60;;;13.70;;
74789;SDS011;63318;52.406;13.416;2022-12-05T12:39:33;28.80;;;13.70;;
74789;SDS011;63318;52.406;13.416;2022-12-05T12:42:15;29.30;;;14.70;;
74789;SDS011;63318;52.406;13.416;2022-12-05T12:44:56;28.60;;;13.30;;
74789;SDS011;63318;52.406;13.416;2022-12-05T12:47:34;31.10;;;14.00;;
74789;SDS011;63318;52.406;13.416;2022-12-05T12:50:12;29.60;;;13.90;;
74789;SDS011;63318;52.406;13.416;2022-12-05T12:52:49;31.50;;;14.30;;
74789;SDS011;63318;52.406;13.416;2022-12-05T12:55:29;31.00;;;13.60;;
74789;SDS011;63318;52.406;13.416;2022-12-05T12:58:09;31.80;;;15.20;;
74789;SDS011;63318;52.406;13.416;2022-12-05T13:00:53;37.00;;;14.60;;
74789;SDS011;63318;52.406;13.416;2022-12-05T13:03:27;34.90;;;14.30;;
74789;SDS011;63318;52.406;13.416;2022-12-05T13:06:01;31.70;;;14.40;;
74789;SDS011;63318;52.406;13.416;2022-12-05T13:08:34;36.20;;;14.40;;
74789;SDS011;63318;52.406;13.416;2022-12-05T13:11:09;32.40;;;13.70;;
74789;SDS011;63318;52.406;13.416;2022-12-05T13:13:41;31.70;;;13.40;;
74789;SDS011;63318;52.406;13.416;2022-12-05T13:16:14;39.20;;;15.20;;
74789;SDS011;63318;52.406;13.416;2022-12-05T13:18:48;35.40;;;15.40;;
74789;SDS011;63318;52.406;13.416;2022-12-05T13:21:16;35.20;;;14.30;;
74789;SDS011;63318;52.406;13.416;2022-12-05T13:23:46;37.00;;;15.00;;
74789;SDS011;63318;52.406;13.416;2022-12-05T13:26:17;34.10;;;13.70;;
74789;SDS011;63318;52.406;13.416;2022-12-05T13:28:49;32.20;;;13.90;;
74789;SDS011;63318;52.406;13.416;2022-12-05T13:31:19;34.30;;;13.90;;
74789;SDS011;63318;52.406;13.416;2022-12-05T13:34:02;33.80;;;12.50;;
74789;SDS011;63318;52.406;13.416;2022-12-05T13:36:37;33.40;;;13.50;;
74789;SDS011;63318;52.406;13.416;2022-12-05T13:39:11;38.80;;;14.80;;
74789;SDS011;63318;52.406;13.416;2022-12-05T13:41:47;35.40;;;13.50;;
74789;SDS011;63318;52.406;13.416;2022-12-05T13:44:20;36.00;;;13.30;;
74789;SDS011;63318;52.406;13.416;2022-12-05T13:46:57;34.80;;;13.10;;
74789;SDS011;63318;52.406;13.416;2022-12-05T13:49:27;37.70;;;15.60;;
74789;SDS011;63318;52.406;13.416;2022-12-05T13:52:04;34.20;;;14.30;;
74789;SDS011;63318;52.406;13.416;2022-12-05T13:54:40;35.10;;;14.50;;
74789;SDS011;63318;52.406;13.416;2022-12-05T13:57:44;37.50;;;14.90;;
74789;SDS011;63318;52.406;13.416;2022-12-05T14:00:22;33.50;;;14.40;;
74789;SDS011;63318;52.406;13.416;2022-12-05T14:02:54;32.80;;;14.20;;
74789;SDS011;63318;52.406;13.416;2022-12-05T14:05:44;41.30;;;15.80;;
74789;SDS011;63318;52.406;13.416;2022-12-05T14:11:18;34.60;;;15.30;;
74789;SDS011;63318;52.406;13.416;2022-12-05T14:13:47;42.10;;;16.00;;
74789;SDS011;63318;52.406;13.416;2022-12-05T14:19:15;41.90;;;14.60;;
74789;SDS011;63318;52.406;13.416;2022-12-05T14:21:57;44.30;;;15.70;;
74789;SDS011;63318;52.406;13.416;2022-12-05T14:24:34;48.00;;;16.00;;
74789;SDS011;63318;52.406;13.416;2022-12-05T14:27:12;45.70;;;16.10;;
74789;SDS011;63318;52.406;13.416;2022-12-05T14:29:51;43.70;;;16.00;;
74789;SDS011;63318;52.406;13.416;2022-12-05T14:32:29;41.20;;;17.00;;
74789;SDS011;63318;52.406;13.416;2022-12-05T14:35:02;39.20;;;14.30;;
74789;SDS011;63318;52.406;13.416;2022-12-05T14:37:38;38.90;;;15.40;;
74789;SDS011;63318;52.406;13.416;2022-12-05T14:40:17;42.10;;;15.10;;
74789;SDS011;63318;52.406;13.416;2022-12-05T14:42:51;43.60;;;16.10;;
74789;SDS011;63318;52.406;13.416;2022-12-05T14:45:24;44.50;;;17.60;;
74789;SDS011;63318;52.406;13.416;2022-12-05T14:47:57;42.40;;;16.10;;
74789;SDS011;63318;52.406;13.416;2022-12-05T14:50:38;42.40;;;18.50;;
74789;SDS011;63318;52.406;13.416;2022-12-05T14:53:17;44.50;;;16.70;;
74789;SDS011;63318;52.406;13.416;2022-12-05T14:56:04;42.10;;;15.80;;
74789;SDS011;63318;52.406;13.416;2022-12-05T14:58:48;43.40;;;17.50;;
74789;SDS011;63318;52.406;13.416;2022-12-05T15:03:56;44.50;;;15.80;;
74789;SDS011;63318;52.406;13.416;2022-12-05T15:06:32;41.50;;;15.60;;
74789;SDS011;63318;52.406;13.416;2022-12-05T15:09:16;46.80;;;16.90;;